createdAt,value
2024-02-03T00:02:00.571Z,86.10
2024-02-03T00:04:31.642Z,86.05
2024-02-03T00:07:05.013Z,86.37
2024-02-03T00:09:36.186Z,86.34
2024-02-03T00:12:11.915Z,86.36
2024-02-03T00:14:42.848Z,86.39
2024-02-03T00:17:13.172Z,86.07
2024-02-03T00:19:43.936Z,85.77
2024-02-03T00:22:16.820Z,85.82
2024-02-03T00:24:47.488Z,85.92
2024-02-03T00:27:18.290Z,85.39
2024-02-03T00:29:49.237Z,85.53
2024-02-03T00:32:19.982Z,85.14
2024-02-03T00:34:50.625Z,84.48
2024-02-03T00:37:24.010Z,85.23
2024-02-03T00:39:54.256Z,85.18
2024-02-03T00:42:24.884Z,85.26
2024-02-03T00:44:55.339Z,85.07
2024-02-03T00:47:25.652Z,84.80
2024-02-03T00:49:59.100Z,84.17
2024-02-03T00:52:33.704Z,84.23
2024-02-03T00:55:05.691Z,84.34
2024-02-03T00:57:35.725Z,84.41
2024-02-03T01:00:08.197Z,84.15
2024-02-03T01:02:38.352Z,84.00
2024-02-03T01:05:09.172Z,84.37
2024-02-03T01:07:41.831Z,84.44
2024-02-03T01:10:13.548Z,84.44
2024-02-03T01:12:44.301Z,84.13
2024-02-03T01:15:14.776Z,84.32
2024-02-03T01:17:45.380Z,84.12
2024-02-03T01:20:16.992Z,84.27
2024-02-03T01:22:49.712Z,84.51
2024-02-03T01:25:20.385Z,84.20
2024-02-03T01:27:51.251Z,84.15
2024-02-03T01:30:22.459Z,84.29
2024-02-03T01:32:52.882Z,84.21
2024-02-03T01:35:24.193Z,84.01
2024-02-03T01:37:57.790Z,83.97
2024-02-03T01:40:28.228Z,83.70
2024-02-03T01:43:01.992Z,83.71
2024-02-03T01:45:41.603Z,83.53
2024-02-03T01:48:14.924Z,83.89
2024-02-03T01:50:50.213Z,83.64
2024-02-03T01:53:24.248Z,83.75
2024-02-03T01:55:57.343Z,83.94
2024-02-03T01:58:27.744Z,83.66
2024-02-03T02:00:59.582Z,83.57
2024-02-03T02:03:30.252Z,83.23
2024-02-03T02:06:00.542Z,83.13
2024-02-03T02:08:41.933Z,83.33
2024-02-03T02:11:13.960Z,83.26
2024-02-03T02:13:44.440Z,82.70
2024-02-03T02:16:14.941Z,82.46
2024-02-03T02:18:45.823Z,82.53
2024-02-03T02:21:20.499Z,82.42
2024-02-03T02:23:52.413Z,82.25
2024-02-03T02:26:22.655Z,82.27
2024-02-03T02:28:53.112Z,82.17
2024-02-03T02:31:23.275Z,82.19
2024-02-03T02:33:56.200Z,82.39
2024-02-03T02:36:30.264Z,82.30
2024-02-03T02:39:00.878Z,82.47
2024-02-03T02:41:34.396Z,82.62
2024-02-03T02:44:04.350Z,83.13
2024-02-03T02:46:34.533Z,83.39
2024-02-03T02:49:09.519Z,83.89
2024-02-03T02:51:42.513Z,85.14
2024-02-03T02:54:13.029Z,85.27
2024-02-03T02:56:43.285Z,86.17
2024-02-03T02:59:13.893Z,86.63
2024-02-03T03:01:44.525Z,87.16
2024-02-03T03:04:15.301Z,87.80
2024-02-03T03:06:48.320Z,88.30
2024-02-03T03:09:18.317Z,88.49
2024-02-03T03:11:48.456Z,88.69
2024-02-03T03:14:21.586Z,89.29
2024-02-03T03:16:52.584Z,89.80
2024-02-03T03:19:22.741Z,89.84
2024-02-03T03:21:55.727Z,90.32
2024-02-03T03:24:25.602Z,90.70
2024-02-03T03:26:55.982Z,90.60
2024-02-03T03:29:25.981Z,90.84
2024-02-03T03:31:56.283Z,91.13
2024-02-03T03:34:26.454Z,91.08
2024-02-03T03:36:59.602Z,90.84
2024-02-03T03:39:29.861Z,90.83
2024-02-03T03:41:59.960Z,91.17
2024-02-03T03:44:33.050Z,91.42
2024-02-03T03:47:00.815Z,91.55
2024-02-03T03:49:34.233Z,91.78
2024-02-03T03:52:08.037Z,92.08
2024-02-03T03:54:38.312Z,91.94
2024-02-03T03:57:08.337Z,92.41
2024-02-03T03:59:38.563Z,92.36
2024-02-03T04:02:09.308Z,92.50
2024-02-03T04:04:41.312Z,92.16
2024-02-03T04:07:13.894Z,92.52
2024-02-03T04:09:50.237Z,92.62
2024-02-03T04:12:20.668Z,92.26
2024-02-03T04:14:53.293Z,92.33
2024-02-03T04:17:23.882Z,92.05
2024-02-03T04:19:54.028Z,92.08
2024-02-03T04:22:27.410Z,91.74
2024-02-03T04:24:58.257Z,91.62
2024-02-03T04:27:28.458Z,91.30
2024-02-03T04:29:58.502Z,91.09
2024-02-03T04:32:28.598Z,90.79
2024-02-03T04:34:58.506Z,90.82
2024-02-03T04:37:31.908Z,90.56
2024-02-03T04:40:05.097Z,90.65
2024-02-03T04:42:35.714Z,90.92
2024-02-03T04:45:06.382Z,90.74
2024-02-03T04:47:37.536Z,90.78
2024-02-03T04:50:08.808Z,90.94
2024-02-03T04:52:42.379Z,90.73
2024-02-03T04:55:12.552Z,91.16
2024-02-03T04:57:42.634Z,91.25
2024-02-03T05:00:14.654Z,91.47
2024-02-03T05:02:45.023Z,91.60
2024-02-03T05:05:14.901Z,91.42
2024-02-03T05:07:47.810Z,91.66
2024-02-03T05:10:17.908Z,91.58
2024-02-03T05:12:47.892Z,91.68
2024-02-03T05:15:20.063Z,91.59
2024-02-03T05:17:50.466Z,92.11
2024-02-03T05:20:20.892Z,92.17
2024-02-03T05:22:54.929Z,92.34
2024-02-03T05:25:24.968Z,92.52
2024-02-03T05:27:55.103Z,92.44
2024-02-03T05:30:25.585Z,92.79
2024-02-03T05:32:55.734Z,92.73
2024-02-03T05:35:25.691Z,92.51
2024-02-03T05:37:58.300Z,92.81
2024-02-03T05:40:28.764Z,93.01
2024-02-03T05:42:59.832Z,93.01
2024-02-03T05:45:30.116Z,92.93
2024-02-03T05:48:00.320Z,92.75
2024-02-03T05:50:30.286Z,93.24
2024-02-03T05:53:04.579Z,92.53
2024-02-03T05:55:35.583Z,92.58
2024-02-03T05:58:05.738Z,92.63
2024-02-03T06:00:35.813Z,92.35
2024-02-03T06:03:05.839Z,92.23
2024-02-03T06:05:41.602Z,91.62
2024-02-03T06:08:21.393Z,91.68
2024-02-03T06:10:53.423Z,91.45
2024-02-03T06:13:24.255Z,91.28
2024-02-03T06:15:54.733Z,90.87
2024-02-03T06:18:25.058Z,90.46
2024-02-03T06:20:56.335Z,90.41
2024-02-03T06:23:28.923Z,90.32
2024-02-03T06:25:58.913Z,90.30
2024-02-03T06:28:31.674Z,89.70
2024-02-03T06:31:01.843Z,89.68
2024-02-03T06:33:31.975Z,89.16
2024-02-03T06:36:02.638Z,89.14
2024-02-03T06:38:36.970Z,88.95
2024-02-03T06:41:07.187Z,88.99
2024-02-03T06:43:41.684Z,88.98
2024-02-03T06:46:11.647Z,89.35
2024-02-03T06:48:41.593Z,89.35
2024-02-03T06:51:12.242Z,89.21
2024-02-03T06:53:44.963Z,89.41
2024-02-03T06:56:15.046Z,89.45
2024-02-03T06:58:45.094Z,89.79
2024-02-03T07:01:15.468Z,89.85
2024-02-03T07:03:45.998Z,90.09
2024-02-03T07:06:16.188Z,90.29
2024-02-03T07:08:50.231Z,90.53
2024-02-03T07:11:20.353Z,90.79
2024-02-03T07:13:51.076Z,90.78
2024-02-03T07:16:21.218Z,90.89
2024-02-03T07:18:51.191Z,90.89
2024-02-03T07:21:21.597Z,90.59
2024-02-03T07:23:54.559Z,90.60
2024-02-03T07:26:24.727Z,90.34
2024-02-03T07:28:55.246Z,89.94
2024-02-03T07:31:33.330Z,89.67
2024-02-03T07:34:03.911Z,89.54
2024-02-03T07:36:38.579Z,89.21
2024-02-03T07:39:11.344Z,89.08
2024-02-03T07:41:41.556Z,88.76
2024-02-03T07:44:11.707Z,88.80
2024-02-03T07:46:42.478Z,88.84
2024-02-03T07:49:12.854Z,88.86
2024-02-03T07:51:43.542Z,88.76
2024-02-03T07:54:16.294Z,88.91
2024-02-03T07:56:46.468Z,88.51
2024-02-03T07:59:16.623Z,88.40
2024-02-03T08:01:48.340Z,88.53
2024-02-03T08:04:18.537Z,88.42
2024-02-03T08:06:48.782Z,88.09
2024-02-03T08:09:21.535Z,88.18
2024-02-03T08:11:52.502Z,87.75
2024-02-03T08:14:22.505Z,87.62
2024-02-03T08:16:52.653Z,87.60
2024-02-03T08:19:23.214Z,87.78
2024-02-03T08:21:53.737Z,87.78
2024-02-03T08:24:26.678Z,87.71
2024-02-03T08:26:57.467Z,87.64
2024-02-03T08:29:27.482Z,87.68
2024-02-03T08:32:09.234Z,87.67
2024-02-03T08:34:39.310Z,87.82
2024-02-03T08:37:09.215Z,87.63
2024-02-03T08:42:11.722Z,87.05
2024-02-03T08:44:41.543Z,86.71
2024-02-03T08:47:13.922Z,86.54
2024-02-03T08:49:53.952Z,86.75
2024-02-03T08:52:24.044Z,86.80
2024-02-03T08:54:54.165Z,86.72
2024-02-03T08:57:24.109Z,87.13
2024-02-03T08:59:54.409Z,87.12
2024-02-03T09:02:26.903Z,87.42
2024-02-03T09:04:56.700Z,87.51
2024-02-03T09:07:26.505Z,87.38
2024-02-03T09:09:57.823Z,87.55
2024-02-03T09:12:28.506Z,88.22
2024-02-03T09:14:58.609Z,87.98
2024-02-03T09:17:31.342Z,87.91
2024-02-03T09:20:01.305Z,88.18
2024-02-03T09:22:31.177Z,88.06
2024-02-03T09:25:01.222Z,87.99
2024-02-03T09:27:31.414Z,88.32
2024-02-03T09:30:01.330Z,88.93
2024-02-03T09:32:33.789Z,88.91
2024-02-03T09:35:04.208Z,89.11
2024-02-03T09:40:09.016Z,90.36
2024-02-03T09:42:40.156Z,90.28
2024-02-03T09:45:10.879Z,90.22
2024-02-03T09:47:43.967Z,89.90
2024-02-03T09:50:14.236Z,89.80
2024-02-03T09:52:46.428Z,90.07
2024-02-03T09:55:17.596Z,89.91
2024-02-03T09:57:50.487Z,89.93
2024-02-03T10:00:22.480Z,90.67
2024-02-03T10:02:54.905Z,90.55
2024-02-03T10:05:32.001Z,90.11
2024-02-03T10:08:07.526Z,89.75
2024-02-03T10:13:13.366Z,88.93
2024-02-03T10:15:43.684Z,88.68
2024-02-03T10:18:17.070Z,88.93
2024-02-03T10:20:47.310Z,88.74
2024-02-03T10:23:17.512Z,89.18
2024-02-03T10:25:48.994Z,89.49
2024-02-03T10:28:19.590Z,89.48
2024-02-03T10:30:50.227Z,89.59
2024-02-03T10:33:22.753Z,89.71
2024-02-03T10:35:53.373Z,89.99
2024-02-03T10:38:23.187Z,89.08
2024-02-03T10:40:53.398Z,88.84
2024-02-03T10:43:24.809Z,88.46
2024-02-03T10:45:56.775Z,88.40
2024-02-03T10:48:30.158Z,88.30
2024-02-03T10:51:05.810Z,87.97
2024-02-03T10:53:38.810Z,88.28
2024-02-03T10:56:13.184Z,87.67
2024-02-03T10:58:43.739Z,87.45
2024-02-03T11:01:19.239Z,87.23
2024-02-03T11:03:54.128Z,87.08
2024-02-03T11:06:28.062Z,87.13
2024-02-03T11:09:13.740Z,86.83
2024-02-03T11:11:44.854Z,86.29
2024-02-03T11:14:16.586Z,86.42
2024-02-03T11:16:46.897Z,86.39
2024-02-03T11:19:19.520Z,86.60
2024-02-03T11:21:49.614Z,86.95
2024-02-03T11:24:19.418Z,87.74
2024-02-03T11:26:58.368Z,88.67
2024-02-03T11:29:28.846Z,89.12
2024-02-03T11:32:02.437Z,89.68
2024-02-03T11:34:37.149Z,89.73
2024-02-03T11:37:10.422Z,90.31
2024-02-03T11:39:41.931Z,90.57
2024-02-03T11:42:12.817Z,90.54
2024-02-03T11:44:54.654Z,89.64
2024-02-03T11:47:25.660Z,89.53
2024-02-03T11:49:58.503Z,88.98
2024-02-03T11:52:28.763Z,88.60
2024-02-03T11:54:58.565Z,88.17
2024-02-03T11:57:28.936Z,88.05
2024-02-03T12:00:03.823Z,88.16
2024-02-03T12:02:35.295Z,87.51
2024-02-03T12:05:13.117Z,87.12
2024-02-03T12:07:45.417Z,86.70
2024-02-03T12:10:17.077Z,87.10
2024-02-03T12:12:47.197Z,86.96
2024-02-03T12:15:17.576Z,86.98
2024-02-03T12:17:50.324Z,86.89
2024-02-03T12:20:32.162Z,86.95
2024-02-03T12:23:02.269Z,86.79
2024-02-03T12:25:32.439Z,86.42
2024-02-03T12:28:03.018Z,86.16
2024-02-03T12:30:37.269Z,85.91
2024-02-03T12:33:08.625Z,85.66
2024-02-03T12:35:41.581Z,85.49
2024-02-03T12:38:12.054Z,85.15
2024-02-03T12:40:41.879Z,85.43
2024-02-03T12:43:11.750Z,85.81
2024-02-03T12:45:41.808Z,85.61
2024-02-03T12:48:11.854Z,85.80
2024-02-03T12:50:44.942Z,86.06
2024-02-03T12:53:15.594Z,85.75
2024-02-03T12:55:46.873Z,85.84
2024-02-03T12:58:17.976Z,85.17
2024-02-03T13:00:48.168Z,84.49
2024-02-03T13:03:18.161Z,84.15
2024-02-03T13:05:50.844Z,83.36
2024-02-03T13:08:21.203Z,82.79
2024-02-03T13:10:51.063Z,82.06
2024-02-03T13:13:20.837Z,81.51
2024-02-03T13:15:50.845Z,80.87
2024-02-03T13:18:20.759Z,80.31
2024-02-03T13:20:53.709Z,80.06
2024-02-03T13:23:23.593Z,79.90
2024-02-03T13:25:53.421Z,79.63
2024-02-03T13:28:23.221Z,79.29
2024-02-03T13:30:53.162Z,79.17
2024-02-03T13:33:23.071Z,78.54
2024-02-03T13:35:56.384Z,78.70
2024-02-03T13:38:26.489Z,78.69
2024-02-03T13:40:56.492Z,78.66
2024-02-03T13:43:26.270Z,78.31
2024-02-03T13:45:56.099Z,77.58
2024-02-03T13:48:26.464Z,77.78
2024-02-03T13:50:59.661Z,77.90
2024-02-03T13:53:29.695Z,77.61
2024-02-03T13:56:01.365Z,77.61
2024-02-03T13:58:31.171Z,77.70
2024-02-03T14:01:01.288Z,77.73
2024-02-03T14:03:31.824Z,78.28
2024-02-03T14:06:04.424Z,78.70
2024-02-03T14:08:34.537Z,79.19
2024-02-03T14:11:04.291Z,79.04
2024-02-03T14:13:34.310Z,78.96
2024-02-03T14:16:04.378Z,79.61
2024-02-03T14:18:34.487Z,79.78
2024-02-03T14:21:07.158Z,79.80
2024-02-03T14:23:37.280Z,79.56
2024-02-03T14:26:07.766Z,80.24
2024-02-03T14:28:37.594Z,81.30
2024-02-03T14:31:07.982Z,83.14
2024-02-03T14:33:38.154Z,83.89
2024-02-03T14:36:11.152Z,84.21
2024-02-03T14:38:42.748Z,84.14
2024-02-03T14:41:12.710Z,84.09
2024-02-03T14:43:43.600Z,83.63
2024-02-03T14:46:13.417Z,82.70
2024-02-03T14:48:43.396Z,82.58
2024-02-03T14:51:16.085Z,82.39
2024-02-03T14:53:45.885Z,81.73
2024-02-03T14:56:15.746Z,81.87
2024-02-03T14:58:45.544Z,81.62
2024-02-03T15:01:15.492Z,81.44
2024-02-03T15:03:45.592Z,81.37
2024-02-03T15:06:18.397Z,81.31
2024-02-03T15:08:48.490Z,81.40
2024-02-03T15:11:18.640Z,81.75
2024-02-03T15:13:48.426Z,81.79
2024-02-03T15:16:18.297Z,82.17
2024-02-03T15:18:48.349Z,81.62
2024-02-03T15:21:20.953Z,81.62
2024-02-03T15:23:50.798Z,82.29
2024-02-03T15:26:21.420Z,82.52
2024-02-03T15:28:51.327Z,83.08
2024-02-03T15:31:21.343Z,82.81
2024-02-03T15:33:51.368Z,82.96
2024-02-03T15:36:24.420Z,83.19
2024-02-03T15:38:54.340Z,83.85
2024-02-03T15:41:24.228Z,85.03
2024-02-03T15:43:54.121Z,85.60
2024-02-03T15:46:33.551Z,86.34
2024-02-03T15:49:10.053Z,86.76
2024-02-03T15:51:42.892Z,86.29
2024-02-03T15:54:12.944Z,86.12
2024-02-03T15:56:43.312Z,85.79
2024-02-03T15:59:15.267Z,86.35
2024-02-03T16:01:45.325Z,86.11
2024-02-03T16:04:15.427Z,85.75
2024-02-03T16:06:48.038Z,85.57
2024-02-03T16:09:18.083Z,85.62
2024-02-03T16:11:48.629Z,87.24
2024-02-03T16:14:18.801Z,88.20
2024-02-03T16:16:48.997Z,89.42
2024-02-03T16:19:19.433Z,90.68
2024-02-03T16:21:52.062Z,91.37
2024-02-03T16:24:21.978Z,91.48
2024-02-03T16:26:52.234Z,91.80
2024-02-03T16:29:22.291Z,92.05
2024-02-03T16:31:52.094Z,92.42
2024-02-03T16:34:23.187Z,92.02
2024-02-03T16:36:55.835Z,92.23
2024-02-03T16:39:27.453Z,91.95
2024-02-03T16:41:57.593Z,91.85
2024-02-03T16:44:27.400Z,91.50
2024-02-03T16:46:57.234Z,92.57
2024-02-03T16:49:27.265Z,92.07
2024-02-03T16:52:00.909Z,92.02
2024-02-03T16:54:31.001Z,91.69
2024-02-03T16:57:00.782Z,91.43
2024-02-03T16:59:30.723Z,91.00
2024-02-03T17:02:00.687Z,89.50
2024-02-03T17:04:30.709Z,89.82
2024-02-03T17:07:03.202Z,89.88
2024-02-03T17:09:34.026Z,89.45
2024-02-03T17:12:04.002Z,90.22
2024-02-03T17:14:34.394Z,89.08
2024-02-03T17:17:04.189Z,89.76
2024-02-03T17:19:34.193Z,89.60
2024-02-03T17:22:07.153Z,89.41
2024-02-03T17:24:37.109Z,89.59
2024-02-03T17:27:07.433Z,89.37
2024-02-03T17:29:37.191Z,88.84
2024-02-03T17:32:07.677Z,88.58
2024-02-03T17:34:39.267Z,88.42
2024-02-03T17:37:11.936Z,88.66
2024-02-03T17:39:41.828Z,87.72
2024-02-03T17:42:11.670Z,87.45
2024-02-03T17:44:41.629Z,87.70
2024-02-03T17:47:12.127Z,87.21
2024-02-03T17:49:42.253Z,88.00
2024-02-03T17:52:14.759Z,87.81
2024-02-03T17:54:48.213Z,88.03
2024-02-03T17:57:18.415Z,88.69
2024-02-03T17:59:48.407Z,89.22
2024-02-03T18:02:19.974Z,89.45
2024-02-03T18:04:49.919Z,89.29
2024-02-03T18:07:22.801Z,89.04
2024-02-03T18:09:53.245Z,88.72
2024-02-03T18:12:23.150Z,87.86
2024-02-03T18:14:53.030Z,87.15
2024-02-03T18:17:22.941Z,87.13
2024-02-03T18:19:52.890Z,86.80
2024-02-03T18:22:25.510Z,85.76
2024-02-03T18:24:55.469Z,84.85
2024-02-03T18:27:25.609Z,85.01
2024-02-03T18:29:55.534Z,84.60
2024-02-03T18:32:25.627Z,84.60
2024-02-03T18:34:55.428Z,84.30
2024-02-03T18:37:27.862Z,84.47
2024-02-03T18:39:57.944Z,84.02
2024-02-03T18:42:27.757Z,83.62
2024-02-03T18:44:58.046Z,84.10
2024-02-03T18:47:27.913Z,84.13
2024-02-03T18:49:57.806Z,84.50
2024-02-03T18:52:31.158Z,84.43
2024-02-03T18:55:01.133Z,84.25
2024-02-03T18:57:31.687Z,84.68
2024-02-03T19:00:01.472Z,84.55
2024-02-03T19:02:31.489Z,84.73
2024-02-03T19:05:02.044Z,84.20
2024-02-03T19:07:34.780Z,83.59
2024-02-03T19:10:04.997Z,82.94
2024-02-03T19:12:34.952Z,83.27
2024-02-03T19:15:06.045Z,83.60
2024-02-03T19:17:39.598Z,84.07
2024-02-03T19:20:12.523Z,84.23
2024-02-03T19:22:44.982Z,84.71
2024-02-03T19:25:15.037Z,84.37
2024-02-03T19:27:45.111Z,84.44
2024-02-03T19:30:17.130Z,84.24
2024-02-03T19:32:48.035Z,84.24
2024-02-03T19:35:18.656Z,84.07
2024-02-03T19:37:51.064Z,83.38
2024-02-03T19:40:21.740Z,83.71
2024-02-03T19:42:51.614Z,83.83
2024-02-03T19:45:21.663Z,83.70
2024-02-03T19:47:51.532Z,83.47
2024-02-03T19:50:24.733Z,83.35
2024-02-03T19:52:59.124Z,83.29
2024-02-03T19:55:29.139Z,84.32
2024-02-03T19:57:59.144Z,85.01
2024-02-03T20:00:29.469Z,85.72
2024-02-03T20:02:59.265Z,85.70
2024-02-03T20:05:29.164Z,85.45
2024-02-03T20:08:02.202Z,85.30
2024-02-03T20:10:33.787Z,85.78
2024-02-03T20:13:05.044Z,85.48
2024-02-03T20:15:34.968Z,84.30
2024-02-03T20:18:05.122Z,84.57
2024-02-03T20:20:35.425Z,84.60
2024-02-03T20:23:07.916Z,85.31
2024-02-03T20:25:38.704Z,84.71
2024-02-03T20:28:09.084Z,83.45
2024-02-03T20:30:39.137Z,83.90
2024-02-03T20:33:09.130Z,80.61
2024-02-03T20:35:39.173Z,80.25
2024-02-03T20:38:12.153Z,79.91
2024-02-03T20:40:45.510Z,78.86
2024-02-03T20:43:19.147Z,79.74
2024-02-03T20:45:51.893Z,80.15
2024-02-03T20:48:22.301Z,80.39
2024-02-03T20:50:52.495Z,81.22
2024-02-03T20:53:25.235Z,80.67
2024-02-03T20:55:55.515Z,80.13
2024-02-03T20:58:25.532Z,80.29
2024-02-03T21:00:55.545Z,78.51
2024-02-03T21:03:25.961Z,78.83
2024-02-03T21:05:56.170Z,78.42
2024-02-03T21:08:28.799Z,78.02
2024-02-03T21:10:58.963Z,78.34
2024-02-03T21:13:29.671Z,78.22
2024-02-03T21:15:59.600Z,78.45
2024-02-03T21:18:29.690Z,77.85
2024-02-03T21:20:59.740Z,77.95
2024-02-03T21:23:32.289Z,77.98
2024-02-03T21:26:02.083Z,77.45
2024-02-03T21:28:31.891Z,76.99
2024-02-03T21:31:01.842Z,76.69
2024-02-03T21:33:31.734Z,76.12
2024-02-03T21:36:01.696Z,76.15
2024-02-03T21:38:34.435Z,76.50
2024-02-03T21:41:04.480Z,76.45
2024-02-03T21:43:34.336Z,76.09
2024-02-03T21:46:04.765Z,75.64
2024-02-03T21:48:36.165Z,75.76
2024-02-03T21:51:06.153Z,75.43
2024-02-03T21:53:38.580Z,75.49
2024-02-03T21:56:08.986Z,75.99
2024-02-03T21:58:38.924Z,75.80
2024-02-03T22:01:08.900Z,76.07
2024-02-03T22:03:39.280Z,76.27
2024-02-03T22:06:10.320Z,76.87
2024-02-03T22:08:42.710Z,77.01
2024-02-03T22:11:12.856Z,77.75
2024-02-03T22:13:42.943Z,77.05
2024-02-03T22:16:12.910Z,76.77
2024-02-03T22:18:42.760Z,76.82
2024-02-03T22:21:12.660Z,76.76
2024-02-03T22:23:45.514Z,76.19
2024-02-03T22:26:15.461Z,75.98
2024-02-03T22:28:45.352Z,75.80
2024-02-03T22:31:15.108Z,76.84
2024-02-03T22:33:44.995Z,77.17
2024-02-03T22:36:15.134Z,77.79
2024-02-03T22:38:47.527Z,77.53
2024-02-03T22:41:17.473Z,77.87
2024-02-03T22:43:47.324Z,77.22
2024-02-03T22:46:17.919Z,77.29
2024-02-03T22:48:48.065Z,77.76
2024-02-03T22:51:18.014Z,77.77
2024-02-03T22:53:50.422Z,77.48
2024-02-03T22:56:20.252Z,77.37
2024-02-03T22:58:50.186Z,76.66
2024-02-03T23:01:20.095Z,76.80
2024-02-03T23:03:50.150Z,76.89
2024-02-03T23:06:20.037Z,77.18
2024-02-03T23:08:53.639Z,77.43
2024-02-03T23:11:23.892Z,77.43
2024-02-03T23:13:53.690Z,77.90
2024-02-03T23:16:23.600Z,78.45
2024-02-03T23:18:53.514Z,78.45
2024-02-03T23:21:24.381Z,79.12
2024-02-03T23:23:56.994Z,79.33
2024-02-03T23:26:27.081Z,79.63
2024-02-03T23:28:57.248Z,80.00
2024-02-03T23:31:28.117Z,79.68
2024-02-03T23:33:59.324Z,79.77
2024-02-03T23:36:30.003Z,79.56
2024-02-03T23:39:03.447Z,79.77
2024-02-03T23:41:33.247Z,79.25
2024-02-03T23:44:04.936Z,78.88
2024-02-03T23:46:35.577Z,79.08
2024-02-03T23:49:06.537Z,78.92
2024-02-03T23:51:36.410Z,78.87
2024-02-03T23:54:10.039Z,78.50
2024-02-03T23:56:40.208Z,78.71
2024-02-03T23:59:10.058Z,78.69
